PUUANAHULU HI US current weather conditions

sailwx.info

Wind from 010 at 9 knots gusting 14

Air temperature 27.8° C
Dewpoint 17.9° C

Last reported at 2016-Jun-30 20:37 UTC.
Time now 2016-Jun-30 21:29 UTC

Location: N 19°50' W 155°46'.
View on Google Maps.

See reports from other nearby stations

  
Tides and Currents Weather Stations Pressure Air Temp Water Temp Dewpoint Dewpoint Depression Visibility Wind Speed Wind Dir Waves Ship Positions
date/time (UTC)wind fromknots sea level pressurealtimeterstation pressurevisibilityair tempwater tempwave heightnotes
2016-Jun-30 20:37 010 9 gusting 14 27.8
2016-Jun-30 19:37 106 2 gusting 6 24.4
2016-Jun-30 18:37 224 3 gusting 6 23.3
2016-Jun-30 17:37 276 4 gusting 9 20.0
2016-Jun-30 16:37 179 4 gusting 6 17.8
2016-Jun-30 15:37 144 5 gusting 6 17.8
2016-Jun-30 14:37 157 3 gusting 5 18.3
2016-Jun-30 13:37 106 3 gusting 5 18.9
2016-Jun-30 12:37 167 2 gusting 2 19.4
2016-Jun-30 11:37 141 0 gusting 2 19.4
2016-Jun-30 10:37 19.4
2016-Jun-30 09:37 067 4 gusting 5 18.9
2016-Jun-30 08:37 045 2 gusting 10 18.9
2016-Jun-30 07:37 197 6 gusting 9 19.4
2016-Jun-30 06:37 215 4 gusting 6 20.0
2016-Jun-30 05:37 336 0 gusting 8 20.0
2016-Jun-30 04:37 004 3 gusting 8 21.1
2016-Jun-30 03:37 348 6 gusting 10 21.1
2016-Jun-30 02:37 286 2 gusting 8 21.1
2016-Jun-30 01:37 285 4 gusting 11 21.7
2016-Jun-30 00:37 001 6 gusting 12 22.8
2016-Jun-29 23:37 345 7 gusting 15 23.9
2016-Jun-29 22:37 25.6
2016-Jun-29 21:37 337 8 gusting 20 25.0
2016-Jun-29 20:37 348 12 gusting 20 26.7
2016-Jun-29 19:37 295 2 gusting 6 25.6
2016-Jun-29 18:37 275 4 gusting 8 23.3
2016-Jun-29 17:37 016 4 gusting 6 22.2
2016-Jun-29 16:37 165 3 gusting 9 17.8
2016-Jun-29 15:37 165 6 gusting 9 17.2
2016-Jun-29 14:37 161 1 gusting 6 17.2
2016-Jun-29 13:37 169 5 gusting 7 18.3
2016-Jun-29 12:37 172 1 gusting 5 18.3
2016-Jun-29 11:37 212 3 gusting 5 19.4
2016-Jun-29 10:37 213 3 gusting 6 20.0
2016-Jun-29 09:37 159 1 gusting 6 20.0
2016-Jun-29 08:37 240 4 gusting 6 20.6
2016-Jun-29 07:37 176 2 gusting 7 20.0
2016-Jun-29 06:37 004 6 gusting 12 20.0
2016-Jun-29 05:37 360 7 gusting 13 20.6
2016-Jun-29 04:37 337 4 gusting 10 21.7
2016-Jun-29 03:37 311 4 gusting 8 23.3
2016-Jun-29 02:37 315 6 gusting 13 24.4
2016-Jun-29 01:37 327 6 gusting 13 24.4
2016-Jun-29 00:37 326 7 gusting 13 25.0
2016-Jun-28 23:37 330 9 gusting 15 25.6
2016-Jun-28 22:37 319 8 gusting 21 25.0
2016-Jun-28 21:37 345 7 gusting 17 25.6